Time;durP1;ratioP1;P1;durP2;ratioP2;P2;SDS_P1;SDS_P2;PMS_P1;PMS_P2;Temp;Humidity;BMP_temperature;BMP_pressure;BME280_temperature;BME280_humidity;BME280_pressure;Samples;Min_cycle;Max_cycle;Signal;HPM_P1;HPM_P2
2021/11/06 00:00:39;;;;;;;1.20;1.10;;;;;;;1.86;99.80;99062.31;5092058;28;20133;-68
2021/11/06 00:03:07;;;;;;;1.30;1.20;;;;;;;1.90;99.90;99063.84;5091770;28;20051;-68
2021/11/06 00:05:35;;;;;;;1.58;1.48;;;;;;;1.68;98.80;99061.44;5092032;28;20098;-68
2021/11/06 00:08:02;;;;;;;1.60;1.50;;;;;;;1.65;99.36;99076.13;5091646;28;20044;-68
2021/11/06 00:10:29;;;;;;;1.65;1.40;;;;;;;1.65;99.12;99073.56;5092146;28;20403;-68
2021/11/06 00:12:56;;;;;;;1.50;1.40;;;;;;;1.65;99.61;99076.13;5092208;28;20048;-68
2021/11/06 00:15:24;;;;;;;1.15;1.05;;;;;;;1.70;98.32;99074.19;5092197;28;20044;-68
2021/11/06 00:17:51;;;;;;;1.15;1.02;;;;;;;1.72;98.57;99072.38;5092208;28;20048;-68
2021/11/06 00:20:18;;;;;;;0.98;0.98;;;;;;;1.65;98.17;99076.13;5091986;28;20044;-68
2021/11/06 00:22:46;;;;;;;0.70;0.70;;;;;;;1.68;98.09;99074.25;5091929;28;20048;-68
2021/11/06 00:25:14;;;;;;;0.73;0.73;;;;;;;1.60;98.61;99078.06;5091551;28;20084;-68
2021/11/06 00:27:42;;;;;;;0.80;0.80;;;;;;;1.59;97.71;99072.09;5092114;28;20048;-69
2021/11/06 00:30:10;;;;;;;0.73;0.73;;;;;;;1.44;98.33;99076.19;5091463;28;20418;-68
2021/11/06 00:32:38;;;;;;;1.08;0.93;;;;;;;1.61;98.52;99077.97;5093776;28;20059;-68
2021/11/06 00:35:07;;;;;;;2.35;1.30;;;;;;;1.43;98.77;99079.63;5095462;28;20055;-68
2021/11/06 00:37:34;;;;;;;2.35;0.90;;;;;;;1.37;97.68;99068.84;5095785;28;20150;-68
2021/11/06 00:40:03;;;;;;;0.70;0.70;;;;;;;1.47;97.98;99080.34;5095755;28;20059;-68
2021/11/06 00:42:30;;;;;;;0.80;0.80;;;;;;;1.36;97.64;99074.84;5095836;28;20048;-68
2021/11/06 00:44:57;;;;;;;0.60;0.60;;;;;;;1.58;96.35;99077.28;5095741;28;20044;-68
2021/11/06 00:47:24;;;;;;;0.70;0.70;;;;;;;1.46;96.41;99076.94;5095801;28;20052;-68
2021/11/06 00:49:51;;;;;;;0.60;0.60;;;;;;;1.39;97.05;99077.25;5095777;28;20414;-68
2021/11/06 00:52:18;;;;;;;0.88;0.70;;;;;;;1.38;97.04;99070.50;5095104;28;20094;-68
2021/11/06 00:54:45;;;;;;;0.70;0.70;;;;;;;1.40;97.32;99074.66;5095482;28;20059;-69
2021/11/06 00:57:13;;;;;;;0.70;0.68;;;;;;;1.22;98.62;99072.91;5095402;28;20048;-68
2021/11/06 00:59:40;;;;;;;0.73;0.73;;;;;;;1.39;97.31;99073.00;5095256;28;20496;-68
2021/11/06 01:02:07;;;;;;;1.05;0.75;;;;;;;1.22;98.34;99070.34;5095398;28;20050;-68
2021/11/06 01:04:34;;;;;;;0.80;0.80;;;;;;;1.21;98.76;99063.56;5095493;28;20048;-68
2021/11/06 01:07:01;;;;;;;0.60;0.60;;;;;;;1.44;96.49;99072.75;5094912;28;20051;-68
2021/11/06 01:09:28;;;;;;;4.07;1.08;;;;;;;1.38;96.92;99075.63;5095525;28;20047;-68
2021/11/06 01:11:55;;;;;;;0.75;0.75;;;;;;;1.48;96.88;99066.63;5094915;28;20044;-69
2021/11/06 01:14:23;;;;;;;0.88;0.60;;;;;;;1.44;96.94;99068.50;5095295;28;20044;-68
2021/11/06 01:16:50;;;;;;;1.75;0.80;;;;;;;1.43;97.81;99066.00;5094907;28;20514;-69
2021/11/06 01:19:17;;;;;;;0.55;0.50;;;;;;;1.55;96.11;99057.75;5095085;28;20411;-68
2021/11/06 01:21:44;;;;;;;0.60;0.60;;;;;;;1.52;95.64;99063.84;5095300;28;20044;-68
2021/11/06 01:24:11;;;;;;;1.65;0.90;;;;;;;1.56;95.26;99058.59;5094928;28;20073;-68
2021/11/06 01:26:38;;;;;;;0.68;0.68;;;;;;;1.66;95.28;99059.84;5094804;28;20495;-69
2021/11/06 01:29:05;;;;;;;0.85;0.52;;;;;;;1.71;94.64;99056.16;5094567;28;20055;-68
2021/11/06 01:31:33;;;;;;;0.93;0.50;;;;;;;1.76;93.83;99050.81;5094714;28;20040;-68
2021/11/06 01:34:00;;;;;;;0.70;0.70;;;;;;;1.56;94.71;99051.72;5094637;28;20054;-68
2021/11/06 01:36:27;;;;;;;2.78;0.60;;;;;;;1.79;94.37;99045.53;5095180;28;20048;-68
2021/11/06 01:38:53;;;;;;;0.60;0.60;;;;;;;1.72;93.80;99047.56;5094908;28;20051;-68
2021/11/06 01:41:20;;;;;;;1.50;0.50;;;;;;;1.76;94.64;99062.81;5094363;28;20047;-68
2021/11/06 01:43:48;;;;;;;0.80;0.70;;;;;;;1.79;94.73;99044.72;5093427;28;20427;-68
2021/11/06 01:46:15;;;;;;;0.60;0.60;;;;;;;1.74;94.79;99052.63;5094241;28;20048;-68
2021/11/06 01:48:44;;;;;;;0.50;0.50;;;;;;;1.67;94.57;99053.78;5094454;28;20411;-68
2021/11/06 01:51:11;;;;;;;0.60;0.60;;;;;;;1.69;95.45;99060.50;5094019;28;20126;-68
2021/11/06 01:53:37;;;;;;;0.55;0.55;;;;;;;1.62;95.08;99053.16;5094220;28;20056;-68
2021/11/06 01:56:05;;;;;;;1.65;0.60;;;;;;;1.70;94.94;99057.06;5094059;28;20487;-68
2021/11/06 01:58:32;;;;;;;0.50;0.50;;;;;;;1.76;93.65;99047.44;5094416;28;20044;-68
2021/11/06 02:01:00;;;;;;;0.57;0.57;;;;;;;1.74;93.87;99048.31;5093881;28;20059;-68
2021/11/06 02:03:27;;;;;;;;;;;;;;;1.77;93.71;99044.78;5094886;28;20047;-69
2021/11/06 02:05:55;;;;;;;2.05;0.60;;;;;;;1.84;93.40;99047.91;5094084;28;20364;-68
2021/11/06 02:08:22;;;;;;;0.60;0.60;;;;;;;1.77;93.44;99043.94;5094036;28;20044;-68
2021/11/06 02:10:49;;;;;;;0.55;0.55;;;;;;;1.84;93.25;99037.66;5094153;28;20055;-68
2021/11/06 02:13:17;;;;;;;0.98;0.60;;;;;;;1.80;93.63;99041.25;5093948;28;20056;-69
2021/11/06 02:15:45;;;;;;;0.95;0.68;;;;;;;1.90;93.27;99039.91;5093889;28;20048;-68
2021/11/06 02:18:12;;;;;;;0.80;0.68;;;;;;;1.97;93.35;99041.28;5093883;28;20048;-68
2021/11/06 02:20:44;;;;;;;0.55;0.55;;;;;;;2.00;93.17;99037.75;5093743;28;20052;-69
2021/11/06 02:23:11;;;;;;;0.55;0.55;;;;;;;1.92;94.08;99032.97;5093424;28;20044;-68
2021/11/06 02:25:37;;;;;;;0.50;0.50;;;;;;;2.01;92.76;99034.31;5093943;28;20059;-68
2021/11/06 02:28:05;;;;;;;0.50;0.50;;;;;;;2.01;93.04;99031.75;5093420;28;20048;-68
2021/11/06 02:30:32;;;;;;;0.60;0.60;;;;;;;1.93;93.67;99030.34;5093528;28;20048;-68
2021/11/06 02:32:59;;;;;;;0.73;0.60;;;;;;;2.09;93.50;99034.75;5093334;28;20044;-68
2021/11/06 02:35:25;;;;;;;;;;;;;;;2.07;93.66;99034.00;5093908;28;20212;-68
2021/11/06 02:37:54;;;;;;;0.60;0.60;;;;;;;1.95;94.40;99023.44;5093722;28;19920;-68
2021/11/06 02:40:21;;;;;;;3.10;0.75;;;;;;;1.95;94.10;99028.56;5093489;28;20048;-68
2021/11/06 02:42:47;;;;;;;0.60;0.60;;;;;;;1.91;94.54;99024.47;5093659;28;20047;-68
2021/11/06 02:45:14;;;;;;;0.65;0.60;;;;;;;1.92;95.29;99025.28;5093213;28;20048;-68
2021/11/06 02:47:41;;;;;;;0.50;0.50;;;;;;;1.95;95.27;99023.44;5093268;28;20067;-68
2021/11/06 02:50:08;;;;;;;0.60;0.60;;;;;;;1.91;95.26;99018.50;5092985;28;20052;-68
2021/11/06 02:52:36;;;;;;;0.70;0.70;;;;;;;1.84;94.84;99020.53;5093073;28;20052;-68
2021/11/06 02:55:05;;;;;;;1.40;0.73;;;;;;;1.81;95.13;99018.09;5092727;28;20495;-68
2021/11/06 02:57:31;;;;;;;0.93;0.90;;;;;;;1.78;95.74;99012.28;5093299;28;20059;-68
2021/11/06 02:59:59;;;;;;;1.25;0.60;;;;;;;1.70;96.00;99015.22;5092833;28;20048;-68
2021/11/06 03:02:25;;;;;;;0.65;0.65;;;;;;;1.61;96.26;99008.75;5093046;28;20412;-68
2021/11/06 03:04:54;;;;;;;2.33;0.70;;;;;;;1.45;96.64;98995.00;5093257;28;20044;-68
2021/11/06 03:07:21;;;;;;;0.63;0.63;;;;;;;1.50;97.50;99018.69;5092898;28;20461;-68
2021/11/06 03:09:47;;;;;;;0.85;0.70;;;;;;;1.47;97.01;99023.97;5093154;28;20055;-68
2021/11/06 03:12:17;;;;;;;0.95;0.80;;;;;;;1.42;97.53;99023.34;5092511;28;20562;-68
2021/11/06 03:14:43;;;;;;;1.02;0.60;;;;;;;1.40;97.64;99018.28;5093079;28;20048;-68
2021/11/06 03:17:11;;;;;;;0.80;0.77;;;;;;;1.38;97.51;99014.94;5092679;28;20044;-67
2021/11/06 03:19:37;;;;;;;;;;;;;;;1.39;98.26;99018.31;5093064;28;20605;-68
2021/11/06 03:22:06;;;;;;;0.85;0.80;;;;;;;1.38;98.24;99016.66;5092736;28;19920;-68
2021/11/06 03:24:33;;;;;;;0.60;0.60;;;;;;;1.35;98.09;99019.38;5093076;28;20055;-68
2021/11/06 03:27:00;;;;;;;;;;;;;;;1.37;98.37;99010.72;5092764;28;20048;-68
2021/11/06 03:29:28;;;;;;;0.60;0.60;;;;;;;1.36;98.68;99016.72;5092902;28;19919;-68
2021/11/06 03:31:55;;;;;;;0.68;0.60;;;;;;;1.32;98.65;99014.41;5092371;28;20046;-68
2021/11/06 03:34:22;;;;;;;0.70;0.70;;;;;;;1.30;99.07;99015.28;5092466;28;20415;-68
2021/11/06 03:36:49;;;;;;;0.55;0.55;;;;;;;1.32;99.47;99020.34;5092365;28;20495;-68
2021/11/06 03:39:17;;;;;;;4.13;0.70;;;;;;;1.32;99.00;99011.84;5092436;28;20048;-68
2021/11/06 03:41:44;;;;;;;0.70;0.70;;;;;;;1.30;99.25;99007.59;5092307;28;20051;-68
2021/11/06 03:44:11;;;;;;;3.40;0.77;;;;;;;1.30;99.13;99010.16;5091999;28;20051;-68
2021/11/06 03:46:39;;;;;;;0.70;0.70;;;;;;;1.33;99.18;99011.75;5092280;28;20491;-68
2021/11/06 03:49:06;;;;;;;3.85;0.90;;;;;;;1.34;99.18;99004.88;5092297;28;20048;-68
2021/11/06 03:51:33;;;;;;;1.92;0.80;;;;;;;1.32;99.05;99009.28;5092191;28;20044;-68
2021/11/06 03:54:00;;;;;;;0.60;0.60;;;;;;;1.31;98.92;99008.44;5092272;28;20056;-68
2021/11/06 03:56:27;;;;;;;0.77;0.60;;;;;;;1.31;98.83;99003.31;5092358;28;20075;-68
2021/11/06 03:58:55;;;;;;;0.60;0.60;;;;;;;1.27;98.75;99005.16;5092451;28;20074;-68
2021/11/06 04:01:22;;;;;;;;;;;;;;;1.23;99.27;99008.78;5092748;28;20126;-68
2021/11/06 04:03:50;;;;;;;2.40;0.70;;;;;;;1.23;99.14;99005.38;5092435;28;19920;-68
2021/11/06 04:06:17;;;;;;;0.60;0.60;;;;;;;1.29;99.49;99012.81;5091763;28;20052;-69
2021/11/06 04:08:44;;;;;;;0.60;0.60;;;;;;;1.30;98.67;99005.03;5092180;28;20054;-69
2021/11/06 04:11:12;;;;;;;0.60;0.60;;;;;;;1.36;98.68;99003.91;5091936;28;20055;-68
2021/11/06 04:13:39;;;;;;;1.10;0.80;;;;;;;1.39;98.31;98995.25;5091989;28;20048;-68
2021/11/06 04:16:06;;;;;;;3.75;1.02;;;;;;;1.39;98.04;99008.94;5091637;28;20483;-68
2021/11/06 04:18:33;;;;;;;4.22;1.30;;;;;;;1.41;98.49;99011.41;5091956;28;20044;-68
2021/11/06 04:21:01;;;;;;;0.65;0.65;;;;;;;1.44;98.87;99006.13;5091651;28;20047;-69
2021/11/06 04:23:29;;;;;;;2.60;0.60;;;;;;;1.44;98.59;99012.13;5091870;28;20098;-68
2021/11/06 04:25:55;;;;;;;;;;;;;;;1.44;97.69;99006.13;5092558;28;20048;-69
2021/11/06 04:28:22;;;;;;;0.80;0.60;;;;;;;1.49;98.07;99006.75;5091797;28;19920;-68
2021/11/06 04:30:50;;;;;;;2.17;0.80;;;;;;;1.50;97.45;99006.69;5092145;28;20415;-68
2021/11/06 04:33:17;;;;;;;0.90;0.60;;;;;;;1.47;97.75;98999.16;5091604;28;20459;-69
2021/11/06 04:35:44;;;;;;;2.88;0.90;;;;;;;1.55;96.99;99005.66;5091754;28;20434;-68
2021/11/06 04:38:13;;;;;;;0.95;0.50;;;;;;;1.61;93.36;99001.06;5091470;28;20055;-69
2021/11/06 04:40:40;;;;;;;0.50;0.50;;;;;;;1.68;92.31;98997.31;5091654;28;20151;-68
2021/11/06 04:43:07;;;;;;;2.05;0.85;;;;;;;1.63;91.81;99001.84;5091612;28;20044;-69
2021/11/06 04:45:34;;;;;;;0.60;0.60;;;;;;;1.73;90.93;99000.50;5091955;28;20044;-69
2021/11/06 04:48:01;;;;;;;0.50;0.50;;;;;;;1.77;91.33;99000.34;5091346;28;20512;-68
2021/11/06 04:50:28;;;;;;;0.80;0.70;;;;;;;1.81;90.96;99000.16;5091640;28;20492;-69
2021/11/06 04:52:55;;;;;;;1.05;0.70;;;;;;;1.75;91.96;98992.75;5091388;28;20052;-68
2021/11/06 04:55:24;;;;;;;2.50;0.80;;;;;;;1.78;92.08;99005.44;5091878;28;20423;-68
2021/11/06 04:57:50;;;;;;;1.17;0.60;;;;;;;1.80;91.43;99001.06;5091845;28;20130;-68
2021/11/06 05:00:19;;;;;;;0.60;0.60;;;;;;;1.90;90.52;98997.16;5091590;28;20055;-68
2021/11/06 05:02:46;;;;;;;0.65;0.65;;;;;;;1.95;90.06;98999.50;5091503;28;20431;-68
2021/11/06 05:05:13;;;;;;;1.50;0.70;;;;;;;1.81;91.22;98999.31;5091564;28;20047;-68
2021/11/06 05:07:40;;;;;;;1.95;0.70;;;;;;;1.92;90.95;99002.19;5091297;28;20547;-68
2021/11/06 05:10:08;;;;;;;4.50;0.80;;;;;;;1.87;91.31;99006.72;5091258;28;20412;-68
2021/11/06 05:12:36;;;;;;;0.60;0.60;;;;;;;1.86;90.72;99008.47;5091649;28;20044;-68
2021/11/06 05:15:05;;;;;;;0.85;0.60;;;;;;;1.73;90.77;99015.06;5091076;28;20052;-68
2021/11/06 05:17:32;;;;;;;1.77;0.70;;;;;;;1.91;90.29;99015.94;5091316;28;20062;-68
2021/11/06 05:19:59;;;;;;;1.15;0.60;;;;;;;1.94;90.79;99014.06;5093783;28;20047;-68
2021/11/06 05:22:26;;;;;;;1.25;0.65;;;;;;;1.91;90.19;99016.78;5095018;28;20040;-68
2021/11/06 05:24:53;;;;;;;0.52;0.52;;;;;;;1.91;90.78;99019.34;5095215;28;20055;-69
2021/11/06 05:27:20;;;;;;;1.65;0.77;;;;;;;1.95;91.17;99020.88;5094723;28;20507;-69
2021/11/06 05:29:48;;;;;;;;;;;;;;;1.97;91.23;99018.22;5095283;28;20061;-68
2021/11/06 05:32:15;;;;;;;0.77;0.77;;;;;;;1.91;90.05;99018.50;5094429;28;19934;-68
2021/11/06 05:34:42;;;;;;;2.25;0.50;;;;;;;1.92;91.14;99015.03;5095019;28;20085;-68
2021/11/06 05:37:09;;;;;;;0.95;0.73;;;;;;;1.90;88.33;99012.56;5094415;28;20495;-68
2021/11/06 05:39:36;;;;;;;0.50;0.50;;;;;;;1.88;88.45;99016.09;5094872;28;20126;-68
2021/11/06 05:42:03;;;;;;;0.60;0.60;;;;;;;1.86;89.10;99025.59;5094623;28;20051;-68
2021/11/06 05:44:30;;;;;;;1.33;0.70;;;;;;;1.87;88.67;99024.69;5094556;28;20055;-68
2021/11/06 05:46:58;;;;;;;1.83;0.82;;;;;;;1.78;89.89;99025.94;5094633;28;20048;-68
2021/11/06 05:49:25;;;;;;;0.65;0.60;;;;;;;1.83;89.07;99018.03;5094655;28;20052;-68
2021/11/06 05:51:52;;;;;;;1.95;0.80;;;;;;;1.80;90.30;99020.72;5094308;28;20079;-68
2021/11/06 05:54:20;;;;;;;1.63;0.80;;;;;;;1.86;89.86;99016.16;5094509;28;20048;-68
2021/11/06 05:56:47;;;;;;;1.23;0.70;;;;;;;1.96;90.12;99024.25;5094287;28;20514;-68
2021/11/06 05:59:14;;;;;;;3.50;0.73;;;;;;;1.88;89.68;99023.78;5093871;28;20048;-68
2021/11/06 06:01:41;;;;;;;2.50;0.70;;;;;;;1.89;88.81;99022.88;5094239;28;20048;-69
2021/11/06 06:04:09;;;;;;;1.85;0.70;;;;;;;1.80;89.00;99025.84;5093947;28;20044;-68
2021/11/06 06:06:36;;;;;;;1.60;0.75;;;;;;;1.85;89.39;99029.03;5094435;28;20066;-68
2021/11/06 06:09:03;;;;;;;0.50;0.50;;;;;;;1.91;89.66;99031.34;5094053;28;20048;-68
2021/11/06 06:11:30;;;;;;;2.33;0.80;;;;;;;1.83;89.86;99029.13;5094301;28;20051;-68
2021/11/06 06:13:58;;;;;;;2.15;0.63;;;;;;;1.94;89.26;99031.19;5093589;28;20407;-68
2021/11/06 06:16:25;;;;;;;1.85;0.82;;;;;;;1.69;89.86;99024.63;5093894;28;20514;-68
2021/11/06 06:18:51;;;;;;;1.95;0.75;;;;;;;1.88;89.15;99034.03;5093808;28;20495;-68
2021/11/06 06:21:20;;;;;;;2.80;0.73;;;;;;;1.81;89.20;99032.66;5093863;28;20044;-68
2021/11/06 06:23:48;;;;;;;1.52;0.70;;;;;;;1.89;89.16;99025.44;5094072;28;20040;-68
2021/11/06 06:26:15;;;;;;;1.50;0.70;;;;;;;1.88;89.71;99034.88;5093563;28;20059;-68
2021/11/06 06:28:42;;;;;;;1.15;0.68;;;;;;;1.89;88.95;99038.25;5094229;28;20213;-68
2021/11/06 06:31:09;;;;;;;2.17;0.85;;;;;;;1.88;89.75;99023.78;5092871;28;20496;-68
2021/11/06 06:33:36;;;;;;;;;;;;;;;1.87;89.57;99032.38;5093881;28;20044;-68
2021/11/06 06:36:03;;;;;;;0.65;0.50;;;;;;;1.87;89.33;99040.06;5093542;28;19923;-68
2021/11/06 06:38:31;;;;;;;2.00;1.05;;;;;;;1.73;89.99;99028.72;5093516;28;20488;-68
2021/11/06 06:40:58;;;;;;;1.33;0.63;;;;;;;1.80;88.76;99028.41;5093062;28;20052;-68
2021/11/06 06:43:25;;;;;;;1.30;0.70;;;;;;;1.76;89.63;99032.03;5093325;28;20040;-68
2021/11/06 06:45:52;;;;;;;1.80;0.80;;;;;;;1.69;89.97;99040.00;5093360;28;20048;-68
2021/11/06 06:48:19;;;;;;;2.13;0.73;;;;;;;1.68;89.90;99032.41;5093147;28;20044;-68
2021/11/06 06:50:49;;;;;;;1.85;0.50;;;;;;;1.73;89.55;99033.03;5093332;28;20044;-68
2021/11/06 06:53:17;;;;;;;1.85;0.75;;;;;;;1.74;89.23;99032.09;5092723;28;20063;-68
2021/11/06 06:55:46;;;;;;;0.77;0.70;;;;;;;1.66;89.01;99027.31;5093384;28;20051;-68
2021/11/06 06:58:13;;;;;;;2.58;0.90;;;;;;;1.60;89.87;99042.19;5093132;28;20500;-68
2021/11/06 07:00:40;;;;;;;;;;;;;;;1.60;89.49;99042.19;5093554;28;20052;-69
2021/11/06 07:03:07;;;;;;;2.00;0.60;;;;;;;1.63;89.70;99047.97;5092843;28;19927;-68
2021/11/06 07:05:34;;;;;;;5.05;0.70;;;;;;;1.59;89.66;99043.88;5093002;28;20043;-69
2021/11/06 07:08:00;;;;;;;1.98;0.70;;;;;;;1.59;89.74;99043.88;5092589;28;20047;-68
2021/11/06 07:10:27;;;;;;;1.63;0.70;;;;;;;1.40;90.05;99043.91;5093262;28;20052;-68
2021/11/06 07:12:56;;;;;;;1.25;0.65;;;;;;;1.53;90.04;99047.56;5092666;28;20135;-68
2021/11/06 07:15:23;;;;;;;3.15;0.70;;;;;;;1.61;89.35;99036.97;5092801;28;20056;-68
2021/11/06 07:17:49;;;;;;;2.22;0.80;;;;;;;1.57;89.89;99048.28;5092998;28;20044;-68
2021/11/06 07:20:19;;;;;;;0.60;0.60;;;;;;;1.70;88.98;99043.41;5092706;28;20052;-68
2021/11/06 07:22:47;;;;;;;0.95;0.70;;;;;;;1.49;89.43;99051.19;5092971;28;20047;-68
2021/11/06 07:25:14;;;;;;;0.80;0.80;;;;;;;1.42;89.49;99051.53;5092383;28;20047;-68
2021/11/06 07:27:41;;;;;;;1.50;0.70;;;;;;;1.44;89.89;99049.69;5092445;28;20063;-68
2021/11/06 07:30:11;;;;;;;0.60;0.60;;;;;;;1.44;89.15;99052.25;5092309;28;20488;-68
2021/11/06 07:32:38;;;;;;;0.80;0.80;;;;;;;1.44;89.21;99048.00;5092692;28;20055;-69
2021/11/06 07:35:07;;;;;;;4.50;0.80;;;;;;;1.43;89.74;99053.19;5092498;28;20056;-68
2021/11/06 07:37:34;;;;;;;1.70;0.80;;;;;;;1.57;88.70;99052.53;5092697;28;20048;-68
2021/11/06 07:40:03;;;;;;;1.33;0.60;;;;;;;1.51;88.31;99049.34;5092248;28;20063;-68
2021/11/06 07:42:30;;;;;;;3.33;0.95;;;;;;;1.40;89.34;99051.59;5091877;28;20055;-68
2021/11/06 07:44:56;;;;;;;3.60;0.75;;;;;;;1.47;89.24;99055.53;5092500;28;20054;-68
2021/11/06 07:47:25;;;;;;;0.65;0.65;;;;;;;1.50;89.67;99059.69;5092622;28;20048;-69
2021/11/06 07:49:52;;;;;;;1.92;0.75;;;;;;;1.65;87.91;99055.63;5092076;28;20052;-68
2021/11/06 07:52:19;;;;;;;1.73;0.90;;;;;;;1.53;88.69;99060.38;5091914;28;20056;-68
2021/11/06 07:54:46;;;;;;;1.85;0.80;;;;;;;1.58;88.83;99059.34;5092211;28;20052;-68
2021/11/06 07:57:13;;;;;;;2.05;0.70;;;;;;;1.53;88.93;99062.94;5091933;28;20060;-68
2021/11/06 07:59:40;;;;;;;0.65;0.50;;;;;;;1.73;87.97;99059.47;5092451;28;20047;-68
2021/11/06 08:02:07;;;;;;;0.85;0.68;;;;;;;1.73;88.38;99061.22;5091736;28;20050;-69
2021/11/06 08:04:35;;;;;;;2.03;0.68;;;;;;;1.89;87.61;99061.34;5092286;28;20052;-68
2021/11/06 08:07:02;;;;;;;5.28;0.90;;;;;;;1.78;88.29;99066.16;5091759;28;20423;-68
2021/11/06 08:09:29;;;;;;;3.80;0.80;;;;;;;1.80;87.64;99056.63;5091898;28;20509;-68
2021/11/06 08:11:57;;;;;;;0.77;0.63;;;;;;;1.98;87.22;99054.94;5092142;28;20055;-68
2021/11/06 08:14:23;;;;;;;;;;;;;;;2.10;86.29;99060.31;5092506;28;20044;-68
2021/11/06 08:16:51;;;;;;;0.98;0.85;;;;;;;2.07;86.87;99063.03;5092042;28;20398;-69
2021/11/06 08:19:18;;;;;;;1.23;0.70;;;;;;;2.18;86.92;99071.09;5091997;28;20052;-69
2021/11/06 08:21:46;;;;;;;1.60;0.60;;;;;;;2.03;86.96;99070.94;5091813;28;20088;-69
2021/11/06 08:24:13;;;;;;;1.63;1.00;;;;;;;2.06;86.79;99083.66;5091859;28;20048;-68
2021/11/06 08:26:39;;;;;;;1.27;0.70;;;;;;;2.01;86.27;99075.34;5092208;28;20044;-68
2021/11/06 08:29:06;;;;;;;1.02;0.80;;;;;;;2.06;86.94;99078.53;5091589;28;20052;-68
2021/11/06 08:31:34;;;;;;;1.00;0.60;;;;;;;2.09;86.34;99081.78;5092069;28;20079;-68
2021/11/06 08:34:00;;;;;;;2.28;1.17;;;;;;;2.13;86.20;99083.31;5091733;28;20044;-68
2021/11/06 08:36:27;;;;;;;1.90;0.68;;;;;;;2.16;84.29;99079.75;5091931;28;20059;-68
2021/11/06 08:38:56;;;;;;;1.70;0.60;;;;;;;2.13;84.48;99090.16;5091708;28;20055;-68
2021/11/06 08:41:23;;;;;;;1.45;0.70;;;;;;;2.05;85.46;99082.81;5091705;28;20537;-68
2021/11/06 08:43:50;;;;;;;;;;;;;;;1.99;85.35;99083.09;5092312;28;20044;-68
2021/11/06 08:46:17;;;;;;;1.67;0.68;;;;;;;2.06;85.90;99084.50;5091482;28;20298;-68
2021/11/06 08:48:44;;;;;;;0.50;0.50;;;;;;;2.04;85.28;99088.03;5091996;28;20086;-68
2021/11/06 08:51:11;;;;;;;0.70;0.70;;;;;;;2.07;85.47;99083.56;5091556;28;20052;-68
2021/11/06 08:53:38;;;;;;;0.70;0.70;;;;;;;1.94;86.28;99080.75;5093256;28;20048;-68
2021/11/06 08:56:07;;;;;;;0.85;0.63;;;;;;;1.66;86.66;99086.28;5095443;28;20414;-68
2021/11/06 08:58:34;;;;;;;0.68;0.60;;;;;;;1.88;86.13;99095.59;5095705;28;20048;-68
2021/11/06 09:01:01;;;;;;;1.20;0.60;;;;;;;1.73;86.76;99095.38;5095391;28;20082;-68
2021/11/06 09:03:28;;;;;;;1.55;0.77;;;;;;;1.77;86.70;99097.81;5095642;28;20054;-68
2021/11/06 09:05:56;;;;;;;1.08;0.68;;;;;;;1.71;87.17;99098.91;5095108;28;20052;-68
2021/11/06 09:08:26;;;;;;;2.08;0.93;;;;;;;1.72;88.25;99101.41;5095402;28;20044;-68
2021/11/06 09:10:56;;;;;;;1.73;0.63;;;;;;;1.96;86.97;99104.59;5095177;28;20487;-69
2021/11/06 09:13:25;;;;;;;0.82;0.73;;;;;;;1.83;87.48;99105.25;5095071;28;20044;-69
2021/11/06 09:15:52;;;;;;;1.27;0.68;;;;;;;1.90;86.29;99104.88;5095082;28;20404;-68
2021/11/06 09:18:19;;;;;;;;;;;;;;;1.98;86.44;99107.09;5095157;28;20051;-68
2021/11/06 09:20:46;;;;;;;2.83;1.00;;;;;;;2.01;86.38;99111.25;5095053;28;19920;-68
2021/11/06 09:23:13;;;;;;;0.50;0.50;;;;;;;1.79;87.63;99104.53;5094623;28;20048;-68
2021/11/06 09:25:40;;;;;;;2.40;0.73;;;;;;;2.02;85.89;99110.34;5095219;28;20050;-69
2021/11/06 09:28:07;;;;;;;1.90;0.90;;;;;;;2.03;85.91;99112.84;5094586;28;20055;-69
2021/11/06 09:30:36;;;;;;;0.70;0.60;;;;;;;1.85;86.29;99111.09;5095084;28;20130;-69
2021/11/06 09:33:03;;;;;;;1.08;0.70;;;;;;;1.93;86.27;99115.00;5094363;28;20054;-68
2021/11/06 09:35:30;;;;;;;1.27;0.80;;;;;;;2.00;85.71;99117.28;5094759;28;20050;-69
2021/11/06 09:37:56;;;;;;;3.30;1.35;;;;;;;1.85;85.55;99117.09;5094765;28;20058;-68
2021/11/06 09:40:23;;;;;;;1.90;0.77;;;;;;;2.00;85.16;99114.72;5094640;28;20048;-68
2021/11/06 09:42:51;;;;;;;0.60;0.60;;;;;;;1.95;85.55;99109.78;5094533;28;20052;-68
2021/11/06 09:45:18;;;;;;;0.60;0.60;;;;;;;1.94;85.81;99106.41;5094485;28;20101;-68
2021/11/06 09:47:47;;;;;;;0.60;0.60;;;;;;;1.80;85.58;99101.09;5094832;28;20052;-68
2021/11/06 09:50:16;;;;;;;2.78;0.70;;;;;;;1.83;85.62;99112.94;5094199;28;20101;-68
2021/11/06 09:52:43;;;;;;;0.93;0.73;;;;;;;1.66;86.61;99111.13;5094116;28;20060;-68
2021/11/06 09:55:10;;;;;;;0.50;0.50;;;;;;;1.73;85.56;99107.38;5094329;28;20044;-68
2021/11/06 09:57:37;;;;;;;;;;;;;;;1.66;85.62;99111.94;5094946;28;20040;-69
2021/11/06 10:00:05;;;;;;;;;;;;;;;1.86;86.04;99117.91;5094449;28;19920;-69
2021/11/06 10:02:32;;;;;;;1.55;0.68;;;;;;;1.99;85.10;99116.44;5094365;28;19927;-68
2021/11/06 10:05:00;;;;;;;1.40;0.68;;;;;;;2.10;84.62;99109.06;5093400;28;20044;-68
2021/11/06 10:07:28;;;;;;;0.80;0.50;;;;;;;1.90;84.72;99119.41;5094077;28;20058;-69
2021/11/06 10:10:01;;;;;;;1.25;0.55;;;;;;;2.01;84.61;99118.97;5094304;28;20074;-69
2021/11/06 10:12:42;;;;;;;1.42;0.70;;;;;;;2.17;83.00;99117.34;5094502;28;20052;-68
2021/11/06 10:15:10;;;;;;;2.45;0.80;;;;;;;1.96;85.37;99120.00;5093890;28;20048;-69
2021/11/06 10:17:37;;;;;;;2.38;0.80;;;;;;;2.26;83.89;99114.34;5093889;28;20052;-69
2021/11/06 10:20:29;;;;;;;0.60;0.60;;;;;;;2.21;84.03;99124.00;5093649;28;20050;-69
2021/11/06 10:22:58;;;;;;;0.60;0.60;;;;;;;2.15;83.26;99126.84;5093882;28;20048;-69
2021/11/06 10:25:26;;;;;;;2.38;0.80;;;;;;;2.04;82.52;99121.38;5093649;28;20047;-69
2021/11/06 10:27:56;;;;;;;5.38;0.75;;;;;;;1.87;84.58;99122.13;5093629;28;20518;-69
2021/11/06 10:30:28;;;;;;;3.20;0.80;;;;;;;2.04;84.48;99121.38;5094241;28;20054;-69
2021/11/06 10:33:05;;;;;;;1.55;0.85;;;;;;;2.11;84.13;99125.34;5093535;28;20052;-69
2021/11/06 10:35:36;;;;;;;1.25;0.77;;;;;;;2.20;85.20;99124.06;5093662;28;20058;-69
2021/11/06 10:38:06;;;;;;;2.35;0.90;;;;;;;2.28;84.58;99127.91;5093257;28;20052;-69
2021/11/06 10:40:41;;;;;;;2.65;0.70;;;;;;;2.33;84.54;99122.56;5093540;28;20059;-69
2021/11/06 10:43:10;;;;;;;4.25;0.75;;;;;;;2.03;84.70;99132.53;5093415;28;20052;-69
2021/11/06 10:45:43;;;;;;;1.95;0.60;;;;;;;2.10;84.35;99137.31;5093303;28;20048;-69
2021/11/06 10:48:11;;;;;;;1.75;0.90;;;;;;;2.15;83.00;99127.66;5093137;28;20050;-69
2021/11/06 10:50:46;;;;;;;0.82;0.60;;;;;;;1.96;84.23;99135.38;5093567;28;20070;-69
2021/11/06 10:53:16;;;;;;;1.33;0.60;;;;;;;2.02;82.45;99131.69;5092729;28;20056;-69
2021/11/06 10:55:45;;;;;;;1.73;0.80;;;;;;;2.12;82.66;99135.50;5093353;28;20055;-69
2021/11/06 10:58:25;;;;;;;2.00;0.70;;;;;;;2.20;82.82;99140.28;5093158;28;20101;-69
2021/11/06 11:00:56;;;;;;;4.82;1.15;;;;;;;2.31;82.40;99134.66;5093058;28;20044;-69
2021/11/06 11:03:25;;;;;;;1.75;0.73;;;;;;;2.32;81.65;99126.06;5093268;28;20059;-69
2021/11/06 11:05:54;;;;;;;1.73;0.60;;;;;;;2.24;82.70;99128.97;5093282;28;20054;-69
2021/11/06 11:08:21;;;;;;;0.70;0.70;;;;;;;2.18;82.72;99134.38;5092962;28;20491;-69
2021/11/06 11:10:48;;;;;;;0.82;0.60;;;;;;;2.26;82.78;99122.06;5092903;28;20423;-69
2021/11/06 11:13:17;;;;;;;0.85;0.77;;;;;;;2.24;82.45;99120.47;5093177;28;20047;-69
2021/11/06 11:15:46;;;;;;;3.20;0.80;;;;;;;2.10;83.12;99134.72;5093102;28;20048;-69
2021/11/06 11:18:33;;;;;;;0.60;0.60;;;;;;;2.25;82.59;99128.06;5092716;28;20048;-69
2021/11/06 11:21:14;;;;;;;;;;;;;;;2.08;82.92;99143.41;5093231;28;20052;-68
2021/11/06 11:23:43;;;;;;;3.42;0.80;;;;;;;2.17;82.47;99137.88;5092551;28;20368;-69
2021/11/06 11:26:11;;;;;;;4.72;1.08;;;;;;;2.13;81.72;99137.19;5092655;28;20051;-69
2021/11/06 11:28:38;;;;;;;0.98;0.70;;;;;;;2.08;82.45;99138.28;5092832;28;20048;-69
2021/11/06 11:31:06;;;;;;;2.10;0.73;;;;;;;2.05;82.74;99135.84;5092632;28;20059;-69
2021/11/06 11:33:35;;;;;;;1.15;0.60;;;;;;;2.01;83.45;99137.75;5092708;28;20044;-69
2021/11/06 11:36:03;;;;;;;0.75;0.63;;;;;;;2.00;82.42;99136.06;5092477;28;20048;-69
2021/11/06 11:38:32;;;;;;;0.68;0.63;;;;;;;2.08;83.11;99139.13;5092727;28;20059;-69
2021/11/06 11:41:46;;;;;;;1.55;0.60;;;;;;;1.99;84.01;99143.84;5092131;28;20058;-69
2021/11/06 11:44:31;;;;;;;2.15;0.95;;;;;;;1.90;83.85;99139.94;5010020;28;20041;-69
2021/11/06 11:47:05;;;;;;;1.48;0.50;;;;;;;1.92;83.80;99136.41;5092209;28;20052;-69
2021/11/06 11:49:35;;;;;;;0.70;0.70;;;;;;;1.91;83.91;99136.50;5092642;28;20051;-69